Time;durP1;ratioP1;P1;durP2;ratioP2;P2;SDS_P1;SDS_P2;PMS_P1;PMS_P2;Temp;Humidity;BMP_temperature;BMP_pressure;BME280_temperature;BME280_humidity;BME280_pressure;Samples;Min_cycle;Max_cycle;Signal;HPM_P1;HPM_P2
2021/03/22 00:01:04;;;;;;;4.93;2.72;;;1.80;50.40;;;;;;5096612;28;20053;-73
2021/03/22 00:03:30;;;;;;;4.20;2.40;;;1.70;50.70;;;;;;5096697;28;20016;-73
2021/03/22 00:05:56;;;;;;;4.82;2.85;;;1.70;50.60;;;;;;5097179;28;20024;-71
2021/03/22 00:08:22;;;;;;;4.93;2.35;;;1.60;49.60;;;;;;5096867;28;20024;-71
2021/03/22 00:10:49;;;;;;;4.30;2.80;;;1.60;50.10;;;;;;5096574;28;20069;-71
2021/03/22 00:13:17;;;;;;;4.15;2.47;;;1.70;49.90;;;;;;5078544;28;20447;-71
2021/03/22 00:15:43;;;;;;;3.85;2.35;;;1.70;50.70;;;;;;5096546;28;20028;-71
2021/03/22 00:18:15;;;;;;;4.47;2.70;;;1.70;49.40;;;;;;5096711;28;20424;-71
2021/03/22 00:20:41;;;;;;;3.72;2.70;;;1.70;49.60;;;;;;5096763;28;20115;-71
2021/03/22 00:23:06;;;;;;;4.90;2.90;;;1.70;49.60;;;;;;5096574;28;20059;-71
2021/03/22 00:25:32;;;;;;;3.72;2.53;;;1.70;49.10;;;;;;5096281;28;20390;-71
2021/03/22 00:27:58;;;;;;;4.47;2.33;;;1.70;50.50;;;;;;5078471;28;20024;-71
2021/03/22 00:30:28;;;;;;;3.83;2.53;;;1.70;50.60;;;;;;5078510;28;20363;-71
2021/03/22 00:32:54;;;;;;;4.20;2.17;;;1.70;50.60;;;;;;5096274;28;20420;-72
2021/03/22 00:35:20;;;;;;;4.47;2.80;;;1.70;50.30;;;;;;5096399;28;20031;-73
2021/03/22 00:37:47;;;;;;;3.28;2.15;;;1.70;50.30;;;;;;5096576;28;20030;-71
2021/03/22 00:40:14;;;;;;;3.03;2.22;;;1.70;50.20;;;;;;5096315;28;20028;-70
2021/03/22 00:42:40;;;;;;;4.13;2.72;;;1.70;50.30;;;;;;5078368;28;20023;-71
2021/03/22 00:45:07;;;;;;;3.63;2.35;;;1.70;51.40;;;;;;5096182;28;20103;-71
2021/03/22 00:47:33;;;;;;;3.20;2.20;;;1.70;51.00;;;;;;5096158;28;20471;-71
2021/03/22 00:50:01;;;;;;;3.17;2.20;;;1.70;50.00;;;;;;5096179;28;20150;-72
2021/03/22 00:52:27;;;;;;;7.97;2.50;;;1.70;50.10;;;;;;5095985;28;20028;-72
2021/03/22 00:54:53;;;;;;;4.00;2.50;;;1.80;50.60;;;;;;5096079;28;20043;-72
2021/03/22 00:57:18;;;;;;;3.58;2.55;;;1.80;50.30;;;;;;5099883;28;20023;-73
2021/03/22 00:59:44;;;;;;;4.45;2.33;;;1.70;49.60;;;;;;5099692;28;20032;-72
2021/03/22 01:02:10;;;;;;;4.28;2.67;;;1.70;50.70;;;;;;5099729;28;20024;-73
2021/03/22 01:04:35;;;;;;;3.97;2.20;;;1.70;50.30;;;;;;5099548;28;20071;-72
2021/03/22 01:07:01;;;;;;;3.67;2.38;;;1.70;49.70;;;;;;5099630;28;20047;-73
2021/03/22 01:09:27;;;;;;;3.33;2.60;;;1.70;50.20;;;;;;5081623;28;20052;-73
2021/03/22 01:11:52;;;;;;;3.65;2.63;;;1.70;50.80;;;;;;5099561;28;20016;-72
2021/03/22 01:14:18;;;;;;;4.15;2.45;;;1.70;49.60;;;;;;5081427;28;20083;-73
2021/03/22 01:16:44;;;;;;;4.28;2.45;;;1.70;50.10;;;;;;5099380;28;20174;-73
2021/03/22 01:19:14;;;;;;;3.40;2.40;;;1.70;50.50;;;;;;5099556;28;20032;-73
2021/03/22 01:21:43;;;;;;;3.00;2.17;;;1.70;50.40;;;;;;5099612;28;20027;-73
2021/03/22 01:24:10;;;;;;;5.85;2.40;;;1.70;50.10;;;;;;5081392;28;20028;-73
2021/03/22 01:26:38;;;;;;;4.18;2.35;;;1.70;50.30;;;;;;5099031;28;20060;-73
2021/03/22 01:29:09;;;;;;;3.58;2.75;;;1.70;49.60;;;;;;5099264;28;20091;-73
2021/03/22 01:31:35;;;;;;;3.78;2.40;;;1.80;48.90;;;;;;5099288;28;20028;-72
2021/03/22 01:34:01;;;;;;;3.38;2.03;;;1.90;48.80;;;;;;5099242;28;20035;-72
2021/03/22 01:36:30;;;;;;;4.40;2.33;;;2.00;48.90;;;;;;5099004;28;20438;-73
2021/03/22 01:39:00;;;;;;;3.88;2.30;;;2.00;50.10;;;;;;5098984;28;20024;-72
2021/03/22 01:41:59;;;;;;;3.08;2.13;;;2.00;50.30;;;;;;5098880;28;20048;-73
2021/03/22 01:44:59;;;;;;;4.72;2.20;;;2.00;49.30;;;;;;5098843;28;20028;-73
2021/03/22 01:47:31;;;;;;;2.75;1.83;;;2.10;50.10;;;;;;5077178;28;20097;-73
2021/03/22 01:50:07;;;;;;;6.28;2.28;;;2.10;51.50;;;;;;5098968;28;20028;-73
2021/03/22 01:52:35;;;;;;;3.85;2.38;;;2.00;50.70;;;;;;5098722;28;20024;-73
2021/03/22 01:55:03;;;;;;;3.03;2.15;;;2.10;50.60;;;;;;5098601;28;20446;-72
2021/03/22 01:57:36;;;;;;;2.78;2.10;;;2.10;50.20;;;;;;5098815;28;20020;-73
2021/03/22 02:00:13;;;;;;;3.90;2.40;;;2.00;50.30;;;;;;5098782;28;20316;-73
2021/03/22 02:02:40;;;;;;;5.88;2.70;;;1.90;50.90;;;;;;5098516;28;20027;-72
2021/03/22 02:05:11;;;;;;;2.90;2.40;;;1.90;52.50;;;;;;5098408;28;20024;-72
2021/03/22 02:07:37;;;;;;;2.47;2.08;;;1.80;53.30;;;;;;5098037;28;20025;-73
2021/03/22 02:10:05;;;;;;;2.90;2.17;;;1.60;53.40;;;;;;5098763;28;20103;-73
2021/03/22 02:12:31;;;;;;;3.90;2.70;;;1.60;53.10;;;;;;5098185;28;20102;-72
2021/03/22 02:14:58;;;;;;;2.72;2.08;;;1.60;53.10;;;;;;5098206;28;20051;-73
2021/03/22 02:17:23;;;;;;;3.72;2.20;;;1.50;51.30;;;;;;5080321;28;20353;-72
2021/03/22 02:20:16;;;;;;;3.65;2.00;;;1.60;52.00;;;;;;5098084;28;20120;-73
2021/03/22 02:23:16;;;;;;;4.78;2.50;;;1.60;52.00;;;;;;5098289;28;20035;-72
2021/03/22 02:25:59;;;;;;;3.63;2.40;;;1.50;51.50;;;;;;5079907;28;20044;-72
2021/03/22 02:28:39;;;;;;;5.47;2.17;;;1.60;51.70;;;;;;5097955;28;20028;-72
2021/03/22 02:31:30;;;;;;;4.68;2.03;;;1.60;51.30;;;;;;5097916;28;20067;-73
2021/03/22 02:34:11;;;;;;;3.40;2.05;;;1.70;52.00;;;;;;5079871;28;20474;-72
2021/03/22 02:36:52;;;;;;;3.40;2.25;;;1.70;52.00;;;;;;5097852;28;20074;-73
2021/03/22 02:39:17;;;;;;;4.10;1.80;;;1.70;51.70;;;;;;5097757;28;20117;-73
2021/03/22 02:41:53;;;;;;;3.60;2.45;;;1.70;50.70;;;;;;5097767;28;20398;-72
2021/03/22 02:44:20;;;;;;;5.68;2.15;;;1.80;50.50;;;;;;5097676;28;20320;-73
2021/03/22 02:46:54;;;;;;;4.28;2.00;;;1.90;50.90;;;;;;5097673;28;20092;-72
2021/03/22 02:49:20;;;;;;;2.88;1.98;;;2.00;48.50;;;;;;5097643;28;20016;-73
2021/03/22 02:51:51;;;;;;;3.38;2.38;;;2.20;47.70;;;;;;5079598;28;20024;-73
2021/03/22 02:54:35;;;;;;;3.25;2.10;;;2.40;49.40;;;;;;5097983;28;20035;-73
2021/03/22 02:57:12;;;;;;;3.40;2.08;;;2.50;48.70;;;;;;5097521;28;20028;-72
2021/03/22 02:59:45;;;;;;;;;;;2.60;45.80;;;;;;5097845;28;20051;-73
2021/03/22 03:02:12;;;;;;;4.63;2.25;;;2.90;45.70;;;;;;5097495;28;19904;-72
2021/03/22 03:04:38;;;;;;;3.78;1.98;;;3.10;45.70;;;;;;5097340;28;20020;-73
2021/03/22 03:07:09;;;;;;;4.75;2.25;;;3.30;45.50;;;;;;5097327;28;20024;-73
2021/03/22 03:09:37;;;;;;;3.90;2.25;;;3.30;45.60;;;;;;5079346;28;20027;-72
2021/03/22 03:12:21;;;;;;;2.53;1.90;;;3.30;45.00;;;;;;5097494;28;20408;-73
2021/03/22 03:14:51;;;;;;;3.00;2.10;;;3.40;45.40;;;;;;5079015;28;20316;-73
2021/03/22 03:17:17;;;;;;;3.13;2.00;;;3.30;46.80;;;;;;5097353;28;20032;-73
2021/03/22 03:19:43;;;;;;;4.10;1.83;;;3.20;46.30;;;;;;5096426;28;20020;-73
2021/03/22 03:22:09;;;;;;;3.20;1.88;;;3.20;46.00;;;;;;5097005;28;20327;-73
2021/03/22 03:24:37;;;;;;;2.97;1.98;;;3.30;45.40;;;;;;5096779;28;20024;-73
2021/03/22 03:27:03;;;;;;;3.10;1.77;;;3.40;45.80;;;;;;5097092;28;20412;-73
2021/03/22 03:29:29;;;;;;;2.72;1.67;;;3.30;45.50;;;;;;5097033;28;20017;-73
2021/03/22 03:31:55;;;;;;;2.58;1.90;;;3.30;46.20;;;;;;5096950;28;20028;-73
2021/03/22 03:34:21;;;;;;;3.10;1.92;;;3.20;45.40;;;;;;5097125;28;20028;-73
2021/03/22 03:36:46;;;;;;;3.17;1.77;;;3.30;45.30;;;;;;5079019;28;20028;-73
2021/03/22 03:39:12;;;;;;;2.88;1.88;;;3.40;45.50;;;;;;5079002;28;20073;-73
2021/03/22 03:41:39;;;;;;;2.50;1.80;;;3.30;45.30;;;;;;5096796;28;20089;-73
2021/03/22 03:44:07;;;;;;;2.58;1.92;;;3.30;45.70;;;;;;5096843;28;20023;-73
2021/03/22 03:46:32;;;;;;;4.13;1.95;;;3.30;45.20;;;;;;5096791;28;20110;-73
2021/03/22 03:48:58;;;;;;;2.85;1.95;;;3.40;44.80;;;;;;5097003;28;20066;-73
2021/03/22 03:51:24;;;;;;;2.90;2.00;;;3.50;44.50;;;;;;5096776;28;20036;-73
2021/03/22 03:53:50;;;;;;;3.70;2.10;;;3.60;44.60;;;;;;5096514;28;20054;-72
2021/03/22 03:56:15;;;;;;;4.03;1.80;;;3.60;44.70;;;;;;5096745;28;20107;-73
2021/03/22 03:58:41;;;;;;;3.15;2.10;;;3.60;44.20;;;;;;5096681;28;20032;-70
2021/03/22 04:01:07;;;;;;;4.05;1.98;;;3.70;44.10;;;;;;5096563;28;20028;-72
2021/03/22 04:03:37;;;;;;;2.38;1.73;;;3.80;44.40;;;;;;5096806;28;20031;-70
2021/03/22 04:06:08;;;;;;;2.08;1.60;;;3.80;43.50;;;;;;5097216;28;20026;-71
2021/03/22 04:08:37;;;;;;;3.33;2.00;;;3.90;44.20;;;;;;5096674;28;20016;-71
2021/03/22 04:11:05;;;;;;;2.75;1.80;;;3.80;44.30;;;;;;5096789;28;20028;-72
2021/03/22 04:13:32;;;;;;;3.45;2.03;;;3.70;44.30;;;;;;5096643;28;20020;-71
2021/03/22 04:15:59;;;;;;;2.10;1.45;;;3.60;44.60;;;;;;5096774;28;20060;-72
2021/03/22 04:18:25;;;;;;;2.97;1.77;;;3.70;44.80;;;;;;5096700;28;20031;-73
2021/03/22 04:20:51;;;;;;;3.63;1.92;;;3.60;44.90;;;;;;5078478;28;20039;-73
2021/03/22 04:23:16;;;;;;;2.25;1.63;;;3.50;44.80;;;;;;5096610;28;20067;-73
2021/03/22 04:25:43;;;;;;;4.65;1.75;;;3.50;44.50;;;;;;5096263;28;20360;-73
2021/03/22 04:28:08;;;;;;;2.15;1.63;;;3.50;44.70;;;;;;5096601;28;20083;-72
2021/03/22 04:30:34;;;;;;;2.83;1.80;;;3.40;44.60;;;;;;5098958;28;20028;-73
2021/03/22 04:33:00;;;;;;;3.17;2.00;;;3.30;44.30;;;;;;5082185;28;20048;-73
2021/03/22 04:35:27;;;;;;;2.55;1.85;;;3.30;44.50;;;;;;5100229;28;20106;-73
2021/03/22 04:37:53;;;;;;;3.22;2.08;;;3.20;45.60;;;;;;5082237;28;20016;-73
2021/03/22 04:40:23;;;;;;;2.53;1.60;;;3.00;45.80;;;;;;5100056;28;20056;-73
2021/03/22 04:42:49;;;;;;;2.10;1.60;;;2.90;46.90;;;;;;5100295;28;20020;-73
2021/03/22 04:45:16;;;;;;;2.40;1.30;;;2.80;47.50;;;;;;5099995;28;20024;-73
2021/03/22 04:47:41;;;;;;;2.70;1.70;;;2.70;47.70;;;;;;5099941;28;20020;-73
2021/03/22 04:50:08;;;;;;;3.08;1.75;;;2.60;48.70;;;;;;5100059;28;20031;-73
2021/03/22 04:52:34;;;;;;;4.47;1.80;;;2.40;48.90;;;;;;5099912;28;20024;-73
2021/03/22 04:54:59;;;;;;;2.65;1.85;;;2.30;49.60;;;;;;5099823;28;20035;-71
2021/03/22 04:57:31;;;;;;;3.08;1.95;;;2.10;50.50;;;;;;5099800;28;20435;-71
2021/03/22 04:59:57;;;;;;;3.08;1.67;;;1.90;50.90;;;;;;5099730;28;20038;-72
2021/03/22 05:02:23;;;;;;;2.10;1.38;;;1.80;51.50;;;;;;5099675;28;20048;-71
2021/03/22 05:04:48;;;;;;;3.00;1.48;;;1.70;52.40;;;;;;5099546;28;20117;-70
2021/03/22 05:07:16;;;;;;;2.40;1.60;;;1.60;52.10;;;;;;5081715;28;20031;-70
2021/03/22 05:09:42;;;;;;;2.10;1.50;;;1.50;52.60;;;;;;5099824;28;20024;-70
2021/03/22 05:12:08;;;;;;;1.85;1.40;;;1.60;52.50;;;;;;5099807;28;20030;-70
2021/03/22 05:14:34;;;;;;;2.20;1.50;;;1.60;52.30;;;;;;5099260;28;20031;-71
2021/03/22 05:17:00;;;;;;;2.03;1.48;;;1.50;52.70;;;;;;5099459;28;20036;-72
2021/03/22 05:19:26;;;;;;;2.35;1.45;;;1.50;52.80;;;;;;5099303;28;20100;-72
2021/03/22 05:21:56;;;;;;;1.75;1.30;;;1.60;52.90;;;;;;5099619;28;20098;-73
2021/03/22 05:24:21;;;;;;;3.63;1.58;;;1.70;53.20;;;;;;5099519;28;20473;-73
2021/03/22 05:26:47;;;;;;;2.85;1.50;;;1.70;53.80;;;;;;5081269;28;20028;-70
2021/03/22 05:29:13;;;;;;;2.65;1.27;;;1.80;53.90;;;;;;5099292;28;20066;-72
2021/03/22 05:31:39;;;;;;;2.60;1.40;;;1.90;51.90;;;;;;5081150;28;20066;-72
2021/03/22 05:34:04;;;;;;;2.70;1.25;;;2.00;52.70;;;;;;5099014;28;20382;-72
2021/03/22 05:36:30;;;;;;;1.73;1.17;;;2.10;52.60;;;;;;5099071;28;20024;-73
2021/03/22 05:38:56;;;;;;;2.97;1.58;;;2.20;53.60;;;;;;5099030;28;20320;-73
2021/03/22 05:41:25;;;;;;;1.95;1.30;;;2.30;53.40;;;;;;5098244;28;20099;-72
2021/03/22 05:44:19;;;;;;;2.30;1.10;;;2.40;52.80;;;;;;5080870;28;20032;-73
2021/03/22 05:46:51;;;;;;;1.98;1.20;;;2.60;52.40;;;;;;5069780;28;20344;-72
2021/03/22 05:49:49;;;;;;;1.48;0.98;;;2.60;53.10;;;;;;5098843;28;20467;-73
2021/03/22 05:52:37;;;;;;;2.05;1.40;;;2.80;51.40;;;;;;5079801;28;20320;-73
2021/03/22 05:55:29;;;;;;;2.83;1.02;;;3.00;48.40;;;;;;5099137;28;20081;-73
2021/03/22 05:58:14;;;;;;;2.03;1.35;;;3.30;52.10;;;;;;5098910;28;20048;-73
2021/03/22 06:00:44;;;;;;;6.30;1.52;;;3.40;49.80;;;;;;5098756;28;20028;-73
2021/03/22 06:03:51;;;;;;;2.00;1.60;;;3.60;48.00;;;;;;5098665;28;20435;-72
2021/03/22 06:06:25;;;;;;;1.95;1.27;;;3.70;45.50;;;;;;4997124;28;20061;-73
2021/03/22 06:08:59;;;;;;;1.92;1.23;;;4.00;44.50;;;;;;4997117;28;20051;-72
2021/03/22 06:11:34;;;;;;;10.80;1.65;;;4.20;43.60;;;;;;5055956;28;20043;-73
2021/03/22 06:14:10;;;;;;;1.90;1.20;;;4.30;43.80;;;;;;5098360;28;20020;-73
2021/03/22 06:16:39;;;;;;;2.22;1.50;;;4.40;43.70;;;;;;5080331;28;20479;-73
2021/03/22 06:19:09;;;;;;;2.40;1.23;;;4.40;43.90;;;;;;5098319;28;20137;-73
2021/03/22 06:21:38;;;;;;;4.38;2.10;;;4.30;45.60;;;;;;5098360;28;20118;-73
2021/03/22 06:24:26;;;;;;;3.88;2.70;;;4.30;46.10;;;;;;5098525;28;20023;-73
2021/03/22 06:27:00;;;;;;;6.25;2.80;;;4.30;44.00;;;;;;5098129;28;20028;-73
2021/03/22 06:29:38;;;;;;;3.10;2.53;;;4.30;47.70;;;;;;5098096;28;20103;-73
2021/03/22 06:32:07;;;;;;;3.22;2.08;;;4.20;44.70;;;;;;5098124;28;20038;-73
2021/03/22 06:34:41;;;;;;;4.38;1.77;;;4.20;48.70;;;;;;5097939;28;20028;-73
2021/03/22 06:37:10;;;;;;;3.20;1.45;;;4.20;49.20;;;;;;5097911;28;20371;-73
2021/03/22 06:39:35;;;;;;;4.22;1.95;;;4.30;48.30;;;;;;5097742;28;20300;-73
2021/03/22 06:42:22;;;;;;;4.35;2.33;;;4.40;45.90;;;;;;5097803;28;20103;-73
2021/03/22 06:44:49;;;;;;;2.75;1.75;;;4.60;49.30;;;;;;5079691;28;20024;-73
2021/03/22 06:47:15;;;;;;;2.90;1.35;;;4.80;48.10;;;;;;5097644;28;20020;-73
2021/03/22 06:49:43;;;;;;;3.50;1.50;;;4.90;46.10;;;;;;5097933;28;20027;-73
2021/03/22 06:52:17;;;;;;;6.45;1.50;;;5.10;46.80;;;;;;5097511;28;20016;-73
2021/03/22 06:54:51;;;;;;;2.00;1.10;;;5.40;45.00;;;;;;5096809;28;20062;-73
2021/03/22 06:57:21;;;;;;;1.70;1.02;;;5.60;45.50;;;;;;5097854;28;20054;-73
2021/03/22 07:00:12;;;;;;;1.63;0.75;;;5.80;46.00;;;;;;5097637;28;20032;-71
2021/03/22 07:02:45;;;;;;;1.63;0.90;;;6.00;45.40;;;;;;5097477;28;20028;-73
2021/03/22 07:05:19;;;;;;;2.67;1.45;;;6.10;42.00;;;;;;5097283;28;20039;-73
2021/03/22 07:07:54;;;;;;;3.30;2.30;;;6.30;44.10;;;;;;5097660;28;20016;-73
2021/03/22 07:10:23;;;;;;;2.40;1.60;;;6.40;44.60;;;;;;5079323;28;20028;-73
2021/03/22 07:13:23;;;;;;;3.15;2.05;;;6.50;46.10;;;;;;5079503;28;20349;-73
2021/03/22 07:15:57;;;;;;;3.80;2.30;;;6.60;43.40;;;;;;5096665;28;20040;-73
2021/03/22 07:18:33;;;;;;;3.25;2.20;;;6.50;42.80;;;;;;5097366;28;20024;-73
2021/03/22 07:21:05;;;;;;;5.00;2.20;;;6.40;43.40;;;;;;5097141;28;20358;-73
2021/03/22 07:23:44;;;;;;;4.13;2.60;;;6.30;46.10;;;;;;5097379;28;20012;-73
2021/03/22 07:26:32;;;;;;;2.97;2.10;;;6.50;47.20;;;;;;5096979;28;20447;-73
2021/03/22 07:29:27;;;;;;;4.78;2.58;;;6.70;46.40;;;;;;5097159;28;20023;-73
2021/03/22 07:31:59;;;;;;;3.35;2.28;;;6.80;44.30;;;;;;5074965;28;20358;-73
2021/03/22 07:34:43;;;;;;;4.07;2.00;;;6.80;43.60;;;;;;5097131;28;20035;-71
2021/03/22 07:37:09;;;;;;;2.80;1.92;;;6.80;42.60;;;;;;5097164;28;20032;-72
2021/03/22 07:39:57;;;;;;;4.60;2.20;;;6.70;43.90;;;;;;5096814;28;20076;-71
2021/03/22 07:42:44;;;;;;;2.45;1.98;;;6.90;44.10;;;;;;5097234;28;20066;-71
2021/03/22 07:45:28;;;;;;;4.03;1.95;;;7.00;43.90;;;;;;5096743;28;20028;-71
2021/03/22 07:48:14;;;;;;;3.42;1.85;;;7.20;43.40;;;;;;5096881;28;20434;-71
2021/03/22 07:51:13;;;;;;;2.30;1.35;;;7.40;41.90;;;;;;5097050;28;20032;-72
2021/03/22 07:53:54;;;;;;;3.58;2.20;;;7.50;39.40;;;;;;5097088;28;20101;-71
2021/03/22 07:56:24;;;;;;;4.40;2.30;;;7.50;40.00;;;;;;5096769;28;20036;-71
2021/03/22 07:59:17;;;;;;;4.82;2.60;;;7.60;44.00;;;;;;5096727;28;20362;-71
2021/03/22 08:02:04;;;;;;;3.38;2.00;;;7.60;44.60;;;;;;5096980;28;20028;-71
2021/03/22 08:04:32;;;;;;;7.63;2.30;;;7.80;42.20;;;;;;5097457;28;20047;-71
2021/03/22 08:07:36;;;;;;;3.47;2.17;;;8.10;43.00;;;;;;5100748;28;20020;-72
2021/03/22 08:10:20;;;;;;;2.20;1.70;;;8.40;40.20;;;;;;5100715;28;20032;-72
2021/03/22 08:13:23;;;;;;;3.95;1.98;;;8.80;40.90;;;;;;5100927;28;20028;-72
2021/03/22 08:16:13;;;;;;;3.78;2.38;;;9.70;41.10;;;;;;4999320;28;20382;-71
2021/03/22 08:18:51;;;;;;;3.05;1.85;;;10.60;38.40;;;;;;5097649;28;20040;-71
2021/03/22 08:21:29;;;;;;;2.92;1.42;;;11.70;36.60;;;;;;5100798;28;20103;-72
2021/03/22 08:24:22;;;;;;;2.72;1.70;;;12.70;34.90;;;;;;5100663;28;20062;-72
2021/03/22 08:27:10;;;;;;;2.50;1.85;;;13.50;33.70;;;;;;5100489;28;20085;-72
2021/03/22 08:29:40;;;;;;;3.00;1.90;;;14.20;33.70;;;;;;5100410;28;20407;-72
2021/03/22 08:32:12;;;;;;;4.40;1.85;;;14.40;33.20;;;;;;5100481;28;20052;-72
2021/03/22 08:35:01;;;;;;;1.58;1.10;;;15.00;32.70;;;;;;5100283;28;20085;-71
2021/03/22 08:38:01;;;;;;;2.83;1.83;;;15.20;31.30;;;;;;5082338;28;20101;-72
2021/03/22 08:40:44;;;;;;;1.90;1.50;;;15.20;32.40;;;;;;5045772;28;20107;-71
2021/03/22 08:43:35;;;;;;;2.08;1.58;;;15.60;32.40;;;;;;5100319;28;20403;-72
2021/03/22 08:46:20;;;;;;;1.83;1.17;;;16.00;30.30;;;;;;5100388;28;20024;-71
2021/03/22 08:48:46;;;;;;;4.05;1.63;;;16.10;28.50;;;;;;5082046;28;20328;-72
2021/03/22 08:51:41;;;;;;;2.95;1.30;;;16.30;29.70;;;;;;5099981;28;20422;-72
2021/03/22 08:54:28;;;;;;;2.90;1.10;;;16.60;31.10;;;;;;5078250;28;20040;-72
2021/03/22 08:57:13;;;;;;;4.15;1.42;;;17.10;30.10;;;;;;5100085;28;20031;-72
2021/03/22 08:59:40;;;;;;;4.63;1.27;;;17.70;28.80;;;;;;5099753;28;20126;-72
2021/03/22 09:02:18;;;;;;;1.70;1.35;;;17.80;28.70;;;;;;5099827;28;20020;-72
2021/03/22 09:04:44;;;;;;;1.80;1.25;;;17.50;28.30;;;;;;5099701;28;20109;-72
2021/03/22 09:07:09;;;;;;;2.10;1.38;;;17.50;27.30;;;;;;5099881;28;20024;-71
2021/03/22 09:09:38;;;;;;;1.95;1.20;;;17.30;28.00;;;;;;5099595;28;20024;-71
2021/03/22 09:12:26;;;;;;;4.53;1.67;;;17.20;28.90;;;;;;5099547;28;20024;-71
2021/03/22 09:14:52;;;;;;;1.42;0.85;;;17.30;30.90;;;;;;5081234;28;20481;-72
2021/03/22 09:17:34;;;;;;;3.83;1.05;;;17.10;28.30;;;;;;5098418;28;20415;-71
2021/03/22 09:20:18;;;;;;;1.65;1.00;;;16.80;30.80;;;;;;5099445;28;20020;-72
2021/03/22 09:22:49;;;;;;;1.58;1.10;;;16.80;31.50;;;;;;5081412;28;20107;-72
2021/03/22 09:25:47;;;;;;;2.55;1.20;;;16.90;29.90;;;;;;5099052;28;20420;-72
2021/03/22 09:28:25;;;;;;;2.42;1.90;;;16.90;31.10;;;;;;5099093;28;20024;-72
2021/03/22 09:31:01;;;;;;;2.38;1.70;;;17.10;30.10;;;;;;5099136;28;20078;-71
2021/03/22 09:33:53;;;;;;;2.80;1.40;;;17.10;29.20;;;;;;5099450;28;20024;-71
2021/03/22 09:36:38;;;;;;;2.40;2.15;;;17.10;30.10;;;;;;5099079;28;20024;-72
2021/03/22 09:39:23;;;;;;;3.37;1.87;;;17.30;29.90;;;;;;5099079;28;20030;-71
2021/03/22 09:41:52;;;;;;;2.47;1.33;;;17.20;29.00;;;;;;5097431;28;20326;-72
2021/03/22 09:44:20;;;;;;;2.00;1.27;;;17.20;30.50;;;;;;5099086;28;20036;-71
2021/03/22 09:47:01;;;;;;;3.60;2.05;;;17.30;29.40;;;;;;5098823;28;20442;-72
2021/03/22 09:49:28;;;;;;;4.30;2.63;;;17.40;30.60;;;;;;5098845;28;20039;-71
2021/03/22 09:52:14;;;;;;;8.40;3.30;;;17.50;31.50;;;;;;5098780;28;20032;-72
2021/03/22 09:54:42;;;;;;;3.92;2.88;;;17.30;31.60;;;;;;5098758;28;20036;-71
2021/03/22 09:57:34;;;;;;;2.97;2.50;;;17.40;30.50;;;;;;5080745;28;20076;-72
2021/03/22 10:00:12;;;;;;;5.47;2.72;;;17.80;30.70;;;;;;5098854;28;20324;-71
2021/03/22 10:03:00;;;;;;;6.07;2.90;;;17.80;32.00;;;;;;5098613;28;20016;-72
2021/03/22 10:05:30;;;;;;;4.22;2.50;;;17.50;33.30;;;;;;5098515;28;20020;-72
2021/03/22 10:08:07;;;;;;;3.60;2.20;;;17.50;30.80;;;;;;5098438;28;20020;-71
2021/03/22 10:10:55;;;;;;;2.60;1.40;;;17.60;30.10;;;;;;5098466;28;20073;-72
2021/03/22 10:13:25;;;;;;;4.32;2.65;;;17.50;28.50;;;;;;5093921;28;20442;-71
2021/03/22 10:15:55;;;;;;;2.50;1.83;;;17.70;29.30;;;;;;5089347;28;20032;-72
2021/03/22 10:18:35;;;;;;;3.45;1.80;;;17.50;28.90;;;;;;5098306;28;20031;-72
2021/03/22 10:21:13;;;;;;;2.25;1.73;;;17.30;28.90;;;;;;5098191;28;20028;-72
2021/03/22 10:24:05;;;;;;;3.08;1.75;;;17.60;31.60;;;;;;5098583;28;20024;-72
2021/03/22 10:26:40;;;;;;;4.15;1.58;;;17.30;29.80;;;;;;5098055;28;20048;-72
2021/03/22 10:29:22;;;;;;;2.30;1.70;;;17.60;31.10;;;;;;5097988;28;20065;-71
2021/03/22 10:32:16;;;;;;;2.60;1.60;;;17.50;29.50;;;;;;5098101;28;20051;-71
2021/03/22 10:34:53;;;;;;;2.47;1.77;;;17.70;29.60;;;;;;5098165;28;20039;-72
2021/03/22 10:37:34;;;;;;;2.42;1.50;;;17.70;29.90;;;;;;5098163;28;20028;-72
2021/03/22 10:40:05;;;;;;;2.28;1.70;;;17.10;30.70;;;;;;5098111;28;20032;-71
2021/03/22 10:42:33;;;;;;;3.17;1.70;;;16.90;32.40;;;;;;5097848;28;20020;-72
2021/03/22 10:44:59;;;;;;;2.72;1.90;;;17.10;30.80;;;;;;5097965;28;20024;-72
2021/03/22 10:47:29;;;;;;;1.95;1.67;;;17.70;31.20;;;;;;5079762;28;20032;-72
2021/03/22 10:50:14;;;;;;;3.22;1.80;;;18.00;28.60;;;;;;5097675;28;20420;-72
2021/03/22 10:52:40;;;;;;;3.40;1.70;;;18.20;30.50;;;;;;5097602;28;20032;-72
2021/03/22 10:55:07;;;;;;;1.92;1.48;;;18.10;30.40;;;;;;5097811;28;20412;-72
2021/03/22 10:57:39;;;;;;;3.90;1.98;;;18.20;31.00;;;;;;5098167;28;20418;-72
2021/03/22 11:00:28;;;;;;;2.50;1.70;;;18.10;30.30;;;;;;5097428;28;20024;-71
2021/03/22 11:02:55;;;;;;;2.03;1.70;;;17.60;28.50;;;;;;5097488;28;20358;-71
2021/03/22 11:05:30;;;;;;;2.60;1.58;;;17.30;29.50;;;;;;5097420;28;20023;-72
2021/03/22 11:08:02;;;;;;;3.03;2.17;;;17.40;33.30;;;;;;5097551;28;20435;-72
2021/03/22 11:10:28;;;;;;;4.60;2.30;;;17.50;29.20;;;;;;5097349;28;20461;-71
2021/03/22 11:12:54;;;;;;;2.40;1.90;;;17.70;29.90;;;;;;5097284;28;20103;-71
2021/03/22 11:15:31;;;;;;;2.90;2.10;;;17.50;30.50;;;;;;5097192;28;20032;-71
2021/03/22 11:17:58;;;;;;;3.65;2.50;;;17.30;31.50;;;;;;5079237;28;20036;-71
2021/03/22 11:20:24;;;;;;;3.17;2.30;;;17.40;30.20;;;;;;5097189;28;20069;-71
2021/03/22 11:22:52;;;;;;;2.88;2.15;;;17.50;31.10;;;;;;5097343;28;20020;-71
2021/03/22 11:25:30;;;;;;;3.10;2.65;;;17.60;29.80;;;;;;5096776;28;20082;-71
2021/03/22 11:28:05;;;;;;;3.63;2.63;;;17.60;31.50;;;;;;5097276;28;20026;-71
2021/03/22 11:30:35;;;;;;;4.70;2.50;;;17.80;31.80;;;;;;5097076;28;20024;-71
2021/03/22 11:33:14;;;;;;;4.30;3.30;;;17.70;31.10;;;;;;5079634;28;20361;-73
2021/03/22 11:35:42;;;;;;;5.05;3.35;;;16.70;31.50;;;;;;5079172;28;20020;-71
2021/03/22 11:38:23;;;;;;;3.08;2.78;;;15.30;32.50;;;;;;5097072;28;20028;-71
2021/03/22 11:40:49;;;;;;;4.15;3.05;;;15.10;33.30;;;;;;5096461;28;20024;-71
2021/03/22 11:43:35;;;;;;;3.75;3.30;;;15.50;32.30;;;;;;5096779;28;20027;-71
2021/03/22 11:46:24;;;;;;;7.03;4.05;;;14.60;35.10;;;;;;5097144;28;20054;-71
2021/03/22 11:48:50;;;;;;;5.22;3.63;;;13.60;36.10;;;;;;5096980;28;20025;-71
2021/03/22 11:51:16;;;;;;;5.32;3.67;;;13.50;36.50;;;;;;5078895;28;20058;-73
2021/03/22 11:54:06;;;;;;;4.75;3.50;;;13.30;37.20;;;;;;5097058;28;20449;-71
2021/03/22 11:56:36;;;;;;;8.88;4.50;;;13.20;35.50;;;;;;5096789;28;20038;-73
2021/03/22 11:59:07;;;;;;;6.72;4.00;;;13.10;37.10;;;;;;5096873;28;20028;-73
2021/03/22 12:01:33;;;;;;;5.78;3.53;;;13.50;35.70;;;;;;5096631;28;20056;-72
2021/03/22 12:04:05;;;;;;;5.20;3.17;;;13.80;36.20;;;;;;5096813;28;20025;-72
2021/03/22 12:06:33;;;;;;;5.05;3.92;;;14.60;37.10;;;;;;5096666;28;20020;-72
2021/03/22 12:09:10;;;;;;;4.72;3.95;;;15.20;34.10;;;;;;5096672;28;20035;-72
2021/03/22 12:11:35;;;;;;;4.45;3.15;;;15.40;34.20;;;;;;5096893;28;20024;-72
2021/03/22 12:14:01;;;;;;;3.83;3.35;;;15.50;37.00;;;;;;5096743;28;20024;-71
2021/03/22 12:16:33;;;;;;;3.78;2.97;;;15.70;34.70;;;;;;5096623;28;20020;-72
2021/03/22 12:19:06;;;;;;;5.93;3.08;;;15.80;33.80;;;;;;5078688;28;20404;-72
2021/03/22 12:21:32;;;;;;;6.13;3.10;;;15.90;31.70;;;;;;5096531;28;20024;-71
2021/03/22 12:24:00;;;;;;;10.10;3.78;;;15.90;33.80;;;;;;5096377;28;20358;-72
2021/03/22 12:26:28;;;;;;;6.40;3.40;;;15.90;31.80;;;;;;5096368;28;20048;-72
2021/03/22 12:28:54;;;;;;;5.00;3.08;;;15.60;35.20;;;;;;5078525;28;20134;-72
2021/03/22 12:31:24;;;;;;;6.20;3.33;;;15.20;32.90;;;;;;5078564;28;20029;-71
2021/03/22 12:33:51;;;;;;;5.07;2.88;;;14.80;33.50;;;;;;5096532;28;20100;-72
2021/03/22 12:36:17;;;;;;;4.60;3.33;;;14.80;34.30;;;;;;5096400;28;20077;-72
2021/03/22 12:38:43;;;;;;;4.47;3.08;;;14.50;35.40;;;;;;5096411;28;20051;-72
2021/03/22 12:41:13;;;;;;;3.92;3.00;;;14.30;35.90;;;;;;5096320;28;20051;-72
2021/03/22 12:43:39;;;;;;;6.38;3.70;;;14.20;36.40;;;;;;5096511;28;20028;-72
2021/03/22 12:46:05;;;;;;;4.78;3.10;;;14.00;36.90;;;;;;5096307;28;20021;-72
2021/03/22 12:48:30;;;;;;;6.38;2.70;;;14.00;36.30;;;;;;5096474;28;20098;-72
2021/03/22 12:50:56;;;;;;;7.57;3.28;;;14.10;34.80;;;;;;5097712;28;20024;-72
2021/03/22 12:53:22;;;;;;;4.55;3.50;;;14.10;34.80;;;;;;5100148;28;20032;-72
2021/03/22 12:55:49;;;;;;;6.30;3.17;;;13.90;35.50;;;;;;5099905;28;20442;-72
2021/03/22 12:58:19;;;;;;;4.95;3.20;;;13.90;37.00;;;;;;5100258;28;20128;-72
2021/03/22 13:00:45;;;;;;;4.75;3.22;;;13.90;34.90;;;;;;5081785;28;20032;-72
2021/03/22 13:03:15;;;;;;;3.83;3.42;;;13.60;36.20;;;;;;5081705;28;20033;-72
2021/03/22 13:05:40;;;;;;;6.10;3.30;;;13.70;36.80;;;;;;5099864;28;20095;-73
2021/03/22 13:08:06;;;;;;;3.53;3.20;;;13.60;35.80;;;;;;5099996;28;20417;-72
2021/03/22 13:10:33;;;;;;;5.50;3.00;;;13.80;38.70;;;;;;5100071;28;20034;-72
2021/03/22 13:13:04;;;;;;;4.35;3.40;;;13.90;37.10;;;;;;5099681;28;20327;-72
2021/03/22 13:15:30;;;;;;;7.10;3.67;;;13.70;37.70;;;;;;5099810;28;20017;-72
2021/03/22 13:17:57;;;;;;;3.65;2.97;;;13.70;38.00;;;;;;5081508;28;20054;-72
2021/03/22 13:20:25;;;;;;;3.67;3.00;;;13.30;35.20;;;;;;5099366;28;20324;-73
2021/03/22 13:22:52;;;;;;;4.75;3.13;;;13.20;36.20;;;;;;5099474;28;20038;-72